Time;durP1;ratioP1;P1;durP2;ratioP2;P2;SDS_P1;SDS_P2;PMS_P1;PMS_P2;Temp;Humidity;BMP_temperature;BMP_pressure;BME280_temperature;BME280_humidity;BME280_pressure;Samples;Min_cycle;Max_cycle;Signal;HPM_P1;HPM_P2
2022/08/09 00:02:04;;;;;;;3.42;1.95;;;28.60;54.90;;;;;;10868136;32;20023;-71
2022/08/09 00:08:09;;;;;;;2.95;1.95;;;28.50;55.20;;;;;;10868124;32;20020;-72
2022/08/09 00:14:12;;;;;;;3.28;1.62;;;28.40;55.30;;;;;;10867823;32;20042;-71
2022/08/09 00:20:14;;;;;;;3.37;1.60;;;28.40;55.80;;;;;;10867325;32;20050;-71
2022/08/09 00:26:16;;;;;;;3.28;1.90;;;28.30;55.90;;;;;;10863253;32;20019;-71
2022/08/09 00:32:18;;;;;;;3.22;1.77;;;28.30;56.20;;;;;;10867314;32;20027;-72
2022/08/09 00:38:21;;;;;;;3.17;1.40;;;28.20;56.40;;;;;;10867338;32;20041;-71
2022/08/09 00:44:23;;;;;;;2.40;1.45;;;28.20;56.60;;;;;;10867001;32;20023;-71
2022/08/09 00:50:25;;;;;;;3.47;1.70;;;28.30;56.80;;;;;;10867024;32;20094;-71
2022/08/09 00:56:29;;;;;;;1.73;1.10;;;28.10;56.90;;;;;;10866875;32;20028;-71
2022/08/09 01:02:32;;;;;;;2.15;1.35;;;28.20;57.00;;;;;;10866903;32;20015;-71
2022/08/09 01:08:46;;;;;;;2.45;1.37;;;28.20;57.10;;;;;;10866745;32;20046;-71
2022/08/09 01:14:56;;;;;;;1.67;1.17;;;28.30;57.20;;;;;;10853418;32;20324;-71
2022/08/09 01:21:09;;;;;;;1.80;1.12;;;28.20;57.40;;;;;;10866516;32;20389;-72
2022/08/09 01:27:14;;;;;;;8.90;1.33;;;28.20;57.20;;;;;;10866733;32;20032;-72
2022/08/09 01:33:18;;;;;;;1.83;1.10;;;28.20;57.00;;;;;;10438082;32;11947695;-71
2022/08/09 01:39:21;;;;;;;1.55;1.15;;;28.10;57.30;;;;;;10795847;33;20414;-71
2022/08/09 01:45:25;;;;;;;1.37;1.17;;;27.90;57.50;;;;;;10795819;33;20040;-71
2022/08/09 01:51:31;;;;;;;1.48;1.00;;;27.80;57.60;;;;;;10795184;33;20324;-71
2022/08/09 01:57:37;;;;;;;5.40;1.52;;;27.80;57.40;;;;;;10847667;32;20061;-71
2022/08/09 02:03:41;;;;;;;2.65;1.00;;;27.80;57.60;;;;;;10872430;32;20356;-71
2022/08/09 02:10:04;;;;;;;1.65;1.35;;;27.80;57.70;;;;;;10872417;32;20050;-72
2022/08/09 02:16:09;;;;;;;2.65;1.75;;;27.80;57.70;;;;;;10872042;32;20319;-71
2022/08/09 02:22:25;;;;;;;2.25;1.55;;;27.70;58.20;;;;;;10871661;32;20039;-71
2022/08/09 02:28:36;;;;;;;4.62;1.58;;;27.60;58.20;;;;;;10871540;32;20027;-71
2022/08/09 02:34:41;;;;;;;1.67;1.27;;;27.60;58.20;;;;;;10871424;32;20050;-71
2022/08/09 02:40:45;;;;;;;1.62;1.12;;;27.60;58.10;;;;;;10870650;32;20430;-71
2022/08/09 02:46:52;;;;;;;1.58;1.10;;;27.60;58.00;;;;;;10857800;32;20050;-71
2022/08/09 02:53:03;;;;;;;2.37;1.45;;;27.60;58.10;;;;;;10870657;32;20438;-71
2022/08/09 02:59:08;;;;;;;2.37;1.58;;;27.60;58.10;;;;;;10870537;32;20031;-71
2022/08/09 03:05:11;;;;;;;2.20;1.65;;;27.50;58.00;;;;;;10870156;32;20078;-71
2022/08/09 03:11:16;;;;;;;3.12;1.42;;;27.40;58.10;;;;;;10870089;32;20031;-71
2022/08/09 03:17:20;;;;;;;3.83;1.33;;;27.40;58.20;;;;;;10869906;32;20050;-71
2022/08/09 03:23:22;;;;;;;2.12;1.40;;;27.30;58.40;;;;;;10869697;32;20035;-71
2022/08/09 03:29:25;;;;;;;1.92;1.20;;;27.30;58.20;;;;;;10869380;32;20020;-71
2022/08/09 03:35:27;;;;;;;2.12;1.20;;;27.30;58.40;;;;;;10869358;32;20024;-71
2022/08/09 03:41:29;;;;;;;1.80;1.55;;;27.30;58.30;;;;;;10868919;32;20029;-71
2022/08/09 03:47:31;;;;;;;2.12;1.33;;;27.20;58.30;;;;;;10868887;32;20024;-71
2022/08/09 03:53:35;;;;;;;2.97;1.83;;;27.00;58.40;;;;;;10868782;32;20294;-71
2022/08/09 03:59:37;;;;;;;1.87;1.37;;;26.90;58.50;;;;;;10866561;32;20035;-71
2022/08/09 04:05:39;;;;;;;1.60;1.30;;;26.90;58.70;;;;;;10868201;32;20438;-71
2022/08/09 04:11:56;;;;;;;4.93;2.22;;;26.90;59.00;;;;;;10868051;32;20024;-71
2022/08/09 04:17:58;;;;;;;1.83;1.25;;;26.90;58.80;;;;;;10866785;32;20054;-71
2022/08/09 04:24:00;;;;;;;3.50;2.20;;;26.90;59.00;;;;;;10867526;32;20027;-71
2022/08/09 04:30:02;;;;;;;6.85;1.62;;;26.90;58.80;;;;;;10886261;27;20040;-71
2022/08/09 04:36:05;;;;;;;3.70;1.80;;;26.80;59.10;;;;;;10900453;32;20380;-71
2022/08/09 04:42:07;;;;;;;1.50;1.05;;;26.80;59.20;;;;;;10891009;32;20069;-72
2022/08/09 04:48:09;;;;;;;1.90;1.33;;;26.80;59.20;;;;;;10903652;32;20019;-72
2022/08/09 04:54:11;;;;;;;3.50;1.83;;;26.80;59.00;;;;;;10900198;32;20054;-71
2022/08/09 05:00:22;;;;;;;3.87;2.28;;;26.90;58.90;;;;;;10904198;32;20027;-71
2022/08/09 05:06:43;;;;;;;6.28;2.05;;;26.90;58.70;;;;;;10899769;32;20054;-72
2022/08/09 05:12:45;;;;;;;2.25;1.50;;;26.90;58.60;;;;;;10908062;32;20070;-71
2022/08/09 05:18:47;;;;;;;1.45;1.35;;;27.00;58.60;;;;;;10911412;32;20294;-72
2022/08/09 05:24:49;;;;;;;3.70;1.70;;;26.90;58.80;;;;;;10912157;32;20020;-71
2022/08/09 05:30:51;;;;;;;2.55;1.70;;;27.00;58.70;;;;;;10910806;32;20038;-71
2022/08/09 05:37:12;;;;;;;2.08;1.42;;;27.00;58.80;;;;;;10912129;32;20058;-71
2022/08/09 05:43:14;;;;;;;4.10;1.80;;;27.00;58.80;;;;;;10910508;32;20050;-71
2022/08/09 05:49:15;;;;;;;1.92;1.30;;;27.00;59.00;;;;;;10906176;32;20089;-72
2022/08/09 05:55:18;;;;;;;1.70;1.30;;;27.10;58.90;;;;;;10910077;32;20057;-71
2022/08/09 06:01:19;;;;;;;1.20;0.80;;;27.10;59.00;;;;;;10909826;32;20380;-72
2022/08/09 06:07:28;;;;;;;2.10;1.40;;;27.20;58.90;;;;;;10909912;32;20015;-71
2022/08/09 06:13:30;;;;;;;2.30;1.17;;;27.20;58.80;;;;;;10908962;32;20015;-71
2022/08/09 06:19:32;;;;;;;1.83;1.40;;;27.20;58.40;;;;;;10908867;32;20027;-71
2022/08/09 06:25:34;;;;;;;4.28;1.45;;;27.20;57.90;;;;;;10907660;32;20075;-73
2022/08/09 06:31:36;;;;;;;1.98;1.45;;;27.30;57.70;;;;;;10906725;32;20070;-72
2022/08/09 06:37:38;;;;;;;2.72;1.75;;;27.30;57.30;;;;;;10908888;32;20038;-71
2022/08/09 06:43:41;;;;;;;2.42;1.33;;;27.50;56.90;;;;;;10908555;32;20050;-72
2022/08/09 06:49:43;;;;;;;1.80;0.98;;;27.60;56.70;;;;;;10908032;32;20023;-71
2022/08/09 06:55:45;;;;;;;1.33;1.00;;;27.70;56.60;;;;;;10907904;32;20027;-72
2022/08/09 07:01:47;;;;;;;1.58;0.88;;;27.80;56.30;;;;;;10907689;32;20031;-72
2022/08/09 07:07:49;;;;;;;3.08;1.10;;;27.90;56.30;;;;;;10907611;32;20027;-71
2022/08/09 07:13:52;;;;;;;1.55;1.10;;;28.00;55.80;;;;;;10890184;32;20046;-71
2022/08/09 07:19:54;;;;;;;2.12;1.70;;;28.00;55.40;;;;;;10869942;32;20042;-71
2022/08/09 07:25:56;;;;;;;1.20;1.10;;;28.10;55.10;;;;;;10865247;32;20055;-72
2022/08/09 07:32:00;;;;;;;2.60;1.27;;;28.30;55.20;;;;;;10869372;32;20332;-71
2022/08/09 07:38:02;;;;;;;2.75;1.40;;;28.30;54.70;;;;;;10869129;32;20020;-72
2022/08/09 07:44:04;;;;;;;2.15;1.52;;;28.40;54.50;;;;;;10868753;32;20050;-71
2022/08/09 07:50:06;;;;;;;2.12;1.30;;;28.50;54.30;;;;;;10868872;32;20579;-72
2022/08/09 07:56:08;;;;;;;4.75;1.70;;;28.60;54.30;;;;;;10865535;32;20023;-71
2022/08/09 08:02:10;;;;;;;1.92;1.27;;;28.70;54.30;;;;;;10855063;32;20016;-72
2022/08/09 08:08:12;;;;;;;2.03;1.30;;;28.80;54.00;;;;;;10888591;32;20049;-71
2022/08/09 08:14:14;;;;;;;1.52;1.25;;;28.80;53.60;;;;;;10905123;32;20011;-72
2022/08/09 08:20:22;;;;;;;1.50;1.23;;;29.00;53.50;;;;;;10901296;32;20383;-71
2022/08/09 08:26:24;;;;;;;;;;;29.00;53.20;;;;;;10905210;32;20045;-71
2022/08/09 08:32:26;;;;;;;1.45;1.00;;;29.00;52.70;;;;;;10895932;32;19954;-71
2022/08/09 08:38:29;;;;;;;2.50;1.45;;;29.10;52.80;;;;;;10866830;32;20027;-71
2022/08/09 08:44:57;;;;;;;4.18;2.45;;;29.10;52.50;;;;;;10867111;32;20028;-71
2022/08/09 08:51:01;;;;;;;1.65;1.33;;;29.20;52.30;;;;;;10867028;32;20046;-72
2022/08/09 08:57:04;;;;;;;2.22;1.67;;;29.20;51.90;;;;;;10866961;32;20020;-72
2022/08/09 09:03:10;;;;;;;2.83;2.03;;;29.40;52.10;;;;;;10866373;32;20559;-71
2022/08/09 09:09:40;;;;;;;5.85;1.60;;;29.50;51.80;;;;;;10866850;32;20434;-72
2022/08/09 09:15:42;;;;;;;2.92;1.98;;;29.50;51.10;;;;;;10862419;32;20051;-71
2022/08/09 09:21:58;;;;;;;2.83;1.83;;;29.70;51.10;;;;;;10866439;32;20032;-71
2022/08/09 09:28:01;;;;;;;2.37;1.60;;;29.80;50.60;;;;;;10866038;32;20102;-72
2022/08/09 09:34:26;;;;;;;2.25;1.70;;;29.90;50.20;;;;;;10866475;32;20059;-71
2022/08/09 09:40:45;;;;;;;3.35;2.05;;;30.00;49.90;;;;;;10866336;32;20032;-71
2022/08/09 09:46:48;;;;;;;3.67;1.90;;;30.10;49.70;;;;;;10866147;32;20054;-72
2022/08/09 09:52:51;;;;;;;2.50;1.48;;;30.20;49.20;;;;;;10871655;32;20032;-71
2022/08/09 09:58:53;;;;;;;1.80;1.30;;;30.30;48.70;;;;;;10872771;32;20026;-72
2022/08/09 10:05:05;;;;;;;3.58;2.00;;;30.40;48.70;;;;;;10872608;32;20054;-72
2022/08/09 10:11:23;;;;;;;3.72;1.50;;;30.60;48.90;;;;;;10871428;32;20024;-71
2022/08/09 10:17:32;;;;;;;4.80;1.67;;;30.70;48.30;;;;;;10868047;32;20036;-72
2022/08/09 10:23:35;;;;;;;2.00;1.60;;;30.80;47.80;;;;;;10871881;32;20053;-71
2022/08/09 10:29:38;;;;;;;1.52;1.00;;;30.90;47.10;;;;;;10871720;32;20019;-72
2022/08/09 10:35:41;;;;;;;2.95;1.33;;;31.10;47.50;;;;;;10854221;32;20054;-71
2022/08/09 10:41:43;;;;;;;2.78;1.20;;;31.10;48.10;;;;;;10871194;32;20028;-72
2022/08/09 10:48:24;;;;;;;3.15;1.67;;;31.20;45.80;;;;;;10871149;32;20058;-72
2022/08/09 10:54:26;;;;;;;1.30;1.20;;;31.30;46.20;;;;;;10870929;32;20055;-71
2022/08/09 11:00:42;;;;;;;1.80;1.27;;;31.60;45.50;;;;;;10853488;32;20020;-72
2022/08/09 11:06:45;;;;;;;2.78;1.87;;;31.80;45.00;;;;;;10871481;32;20352;-72
2022/08/09 11:13:19;;;;;;;1.70;0.88;;;32.10;45.20;;;;;;10870296;32;20031;-72
2022/08/09 11:19:58;;;;;;;1.80;1.40;;;32.30;44.50;;;;;;10680688;33;20033;-72
2022/08/09 11:26:00;;;;;;;2.17;1.20;;;32.50;44.00;;;;;;10577204;33;20266;-72
2022/08/09 11:32:02;;;;;;;1.55;1.20;;;32.80;43.30;;;;;;10560311;33;20038;-72
2022/08/09 11:38:18;;;;;;;2.28;1.20;;;33.10;42.80;;;;;;10573095;33;20388;-72
2022/08/09 11:44:44;;;;;;;2.15;1.37;;;33.40;42.40;;;;;;10576656;33;20072;-72
2022/08/09 11:51:39;;;;;;;3.40;2.08;;;33.50;41.20;;;;;;10564748;33;20030;-72
2022/08/09 11:58:43;;;;;;;2.05;1.20;;;33.70;41.00;;;;;;10718141;32;20029;-72
2022/08/09 12:04:46;;;;;;;2.50;1.75;;;33.90;40.20;;;;;;10682096;33;20107;-72
2022/08/09 12:10:57;;;;;;;2.22;1.27;;;33.90;39.80;;;;;;10681164;33;20341;-72
2022/08/09 12:16:59;;;;;;;3.30;1.70;;;33.90;39.00;;;;;;10678293;33;20438;-72
2022/08/09 12:23:02;;;;;;;2.03;1.10;;;33.90;39.50;;;;;;10682206;33;20050;-72
2022/08/09 12:29:05;;;;;;;4.32;1.52;;;33.90;39.00;;;;;;10691944;27;20032;-72
2022/08/09 12:35:09;;;;;;;2.75;1.55;;;33.90;38.70;;;;;;10717507;33;20067;-71
2022/08/09 12:41:12;;;;;;;3.03;1.95;;;33.90;38.60;;;;;;10829453;32;20042;-72
2022/08/09 12:47:16;;;;;;;3.70;1.40;;;33.80;38.90;;;;;;10867236;32;20012;-72
2022/08/09 12:53:27;;;;;;;3.97;1.67;;;33.90;38.70;;;;;;10866997;32;20182;-72
2022/08/09 12:59:32;;;;;;;2.78;1.33;;;33.80;39.10;;;;;;10867208;32;20016;-72
2022/08/09 13:05:41;;;;;;;1.75;1.30;;;33.80;39.10;;;;;;10866738;32;20393;-72
2022/08/09 13:11:48;;;;;;;2.05;1.50;;;33.80;39.40;;;;;;10866814;32;20046;-72
2022/08/09 13:17:50;;;;;;;2.72;1.40;;;33.80;38.90;;;;;;10866698;32;20019;-72
2022/08/09 13:24:02;;;;;;;1.60;1.10;;;33.80;38.40;;;;;;10867682;32;20344;-72
2022/08/09 13:30:08;;;;;;;2.62;1.65;;;33.70;39.00;;;;;;10872871;32;20015;-72
2022/08/09 13:36:34;;;;;;;6.43;1.65;;;33.80;38.70;;;;;;10862685;32;20289;-73
2022/08/09 13:42:37;;;;;;;4.00;2.20;;;33.80;38.20;;;;;;10872073;32;20059;-72
2022/08/09 13:48:38;;;;;;;2.92;1.80;;;33.70;38.50;;;;;;10859348;32;20028;-71
2022/08/09 13:55:02;;;;;;;2.55;1.50;;;33.80;38.20;;;;;;10872928;32;20098;-72
2022/08/09 14:01:06;;;;;;;4.30;2.30;;;33.70;38.20;;;;;;10872704;32;20040;-72
2022/08/09 14:07:13;;;;;;;5.62;1.50;;;33.60;38.20;;;;;;10871065;32;20028;-71
2022/08/09 14:13:15;;;;;;;2.28;1.62;;;33.70;38.50;;;;;;10870492;32;20102;-72
2022/08/09 14:19:17;;;;;;;7.85;2.00;;;33.60;39.30;;;;;;10872177;32;20051;-72
2022/08/09 14:25:19;;;;;;;3.28;1.65;;;33.60;39.10;;;;;;10871898;32;20062;-72
2022/08/09 14:31:21;;;;;;;1.58;1.35;;;33.70;39.00;;;;;;10871672;32;20388;-72
2022/08/09 14:37:23;;;;;;;3.03;1.85;;;33.60;39.20;;;;;;10870738;32;20024;-71
2022/08/09 14:43:25;;;;;;;6.85;2.00;;;33.60;39.30;;;;;;10871332;32;20028;-72
2022/08/09 14:49:29;;;;;;;3.90;1.42;;;33.70;39.10;;;;;;10871057;32;20085;-72
2022/08/09 14:55:31;;;;;;;3.62;1.23;;;33.80;39.10;;;;;;10869903;32;20015;-72
2022/08/09 15:01:34;;;;;;;4.85;1.65;;;33.80;39.30;;;;;;10870168;32;20028;-72
2022/08/09 15:07:36;;;;;;;3.17;1.17;;;33.80;39.30;;;;;;10870409;32;20023;-72
2022/08/09 15:13:39;;;;;;;2.20;1.27;;;33.80;38.70;;;;;;10870126;32;20032;-72
2022/08/09 15:19:41;;;;;;;3.45;1.95;;;33.90;38.60;;;;;;10869905;32;20027;-71
2022/08/09 15:25:42;;;;;;;2.97;1.23;;;34.00;38.30;;;;;;10856448;32;20043;-72
2022/08/09 15:31:46;;;;;;;1.35;0.90;;;34.00;38.20;;;;;;10869465;32;20046;-72
2022/08/09 15:37:48;;;;;;;2.45;1.62;;;34.00;38.40;;;;;;10869383;32;20436;-72
2022/08/09 15:43:50;;;;;;;3.42;1.50;;;34.10;38.40;;;;;;10869027;32;20045;-72
2022/08/09 15:49:53;;;;;;;1.80;1.20;;;34.10;38.90;;;;;;10868353;32;20027;-72
2022/08/09 15:55:56;;;;;;;2.15;0.88;;;34.00;38.40;;;;;;10868738;32;20446;-72
2022/08/09 16:01:58;;;;;;;2.20;1.30;;;34.20;38.00;;;;;;10868413;32;20054;-72
2022/08/09 16:08:00;;;;;;;1.87;1.05;;;34.20;37.60;;;;;;10868300;32;20332;-72
2022/08/09 16:14:05;;;;;;;2.05;1.12;;;34.20;37.70;;;;;;10868198;32;20062;-72
2022/08/09 16:20:09;;;;;;;4.20;1.55;;;34.30;37.50;;;;;;10865072;32;20058;-72
2022/08/09 16:26:12;;;;;;;2.08;1.30;;;34.40;37.30;;;;;;10849191;32;20027;-72
2022/08/09 16:32:14;;;;;;;1.08;0.77;;;34.40;37.40;;;;;;10833005;32;20054;-72
2022/08/09 16:38:16;;;;;;;2.10;1.50;;;34.50;37.40;;;;;;10830521;32;20062;-72
2022/08/09 16:44:18;;;;;;;3.53;1.55;;;34.50;37.40;;;;;;10830303;32;20082;-72
2022/08/09 16:50:21;;;;;;;6.03;1.40;;;34.50;37.40;;;;;;10847960;32;20067;-73
2022/08/09 16:56:23;;;;;;;0.80;0.75;;;34.50;37.40;;;;;;10863527;32;20035;-72
2022/08/09 17:02:27;;;;;;;1.75;0.95;;;34.30;37.40;;;;;;10877207;32;20046;-72
2022/08/09 17:08:29;;;;;;;4.50;1.45;;;34.30;37.50;;;;;;10878754;32;20032;-72
2022/08/09 17:14:47;;;;;;;1.52;0.90;;;34.30;37.60;;;;;;10878888;32;20397;-72
2022/08/09 17:20:50;;;;;;;3.85;1.50;;;34.30;37.70;;;;;;10878566;32;20061;-72
2022/08/09 17:26:52;;;;;;;4.65;1.60;;;34.30;37.80;;;;;;10876193;32;20046;-72
2022/08/09 17:32:56;;;;;;;3.15;1.25;;;34.70;37.60;;;;;;10878547;32;20019;-72
2022/08/09 17:38:59;;;;;;;1.27;0.82;;;36.00;36.30;;;;;;10878493;32;20046;-71
2022/08/09 17:45:02;;;;;;;1.77;1.00;;;35.40;37.20;;;;;;10878887;32;20023;-72
2022/08/09 17:51:04;;;;;;;1.20;0.75;;;34.60;38.30;;;;;;10865421;32;20047;-72
2022/08/09 17:57:06;;;;;;;2.05;1.25;;;34.00;39.10;;;;;;10874140;32;20388;-72
2022/08/09 18:03:09;;;;;;;3.53;0.95;;;33.90;39.50;;;;;;10878122;32;20031;-72
2022/08/09 18:09:11;;;;;;;1.85;1.05;;;34.40;38.90;;;;;;10864709;32;20396;-72
2022/08/09 18:15:14;;;;;;;1.08;0.68;;;34.20;39.10;;;;;;10873010;32;20047;-72
2022/08/09 18:21:16;;;;;;;1.92;1.15;;;33.60;40.10;;;;;;10852745;32;20028;-73
2022/08/09 18:27:18;;;;;;;1.23;0.73;;;33.00;40.80;;;;;;10835195;32;20082;-72
2022/08/09 18:33:20;;;;;;;2.75;1.65;;;32.80;41.30;;;;;;10850873;32;20023;-72
2022/08/09 18:39:24;;;;;;;1.77;1.17;;;32.40;41.90;;;;;;10871747;32;20020;-72
2022/08/09 18:45:26;;;;;;;1.52;1.15;;;32.20;42.70;;;;;;10865348;32;20066;-72
2022/08/09 18:51:28;;;;;;;5.47;1.45;;;31.90;43.60;;;;;;10870694;32;20090;-72
2022/08/09 18:57:30;;;;;;;1.67;0.90;;;31.70;44.30;;;;;;10878205;32;20023;-72
2022/08/09 19:03:32;;;;;;;2.35;1.48;;;31.60;44.90;;;;;;10870622;32;20023;-72
2022/08/09 19:09:35;;;;;;;5.12;1.20;;;31.40;45.20;;;;;;10870254;32;20042;-72
2022/08/09 19:15:37;;;;;;;2.55;1.42;;;31.30;45.80;;;;;;10878565;32;20011;-72
2022/08/09 19:21:39;;;;;;;2.30;1.35;;;31.10;46.50;;;;;;10869487;32;20027;-72
2022/08/09 19:27:41;;;;;;;1.35;1.25;;;31.00;46.50;;;;;;10869420;32;20024;-72
2022/08/09 19:33:43;;;;;;;2.08;1.20;;;31.00;46.50;;;;;;10869595;32;20380;-72
2022/08/09 19:39:57;;;;;;;3.92;1.55;;;30.90;46.70;;;;;;10869340;32;20024;-72
2022/08/09 19:46:01;;;;;;;1.77;1.05;;;30.80;47.30;;;;;;10869044;32;20031;-72
2022/08/09 19:52:03;;;;;;;3.25;1.52;;;30.60;47.80;;;;;;10867679;32;20054;-72
2022/08/09 19:58:06;;;;;;;2.20;1.10;;;30.60;48.10;;;;;;10868588;32;20050;-72
2022/08/09 20:04:07;;;;;;;1.67;0.93;;;30.40;48.70;;;;;;10868413;32;20302;-72
2022/08/09 20:10:10;;;;;;;3.10;1.60;;;30.40;49.10;;;;;;10868416;32;20430;-72
2022/08/09 20:16:12;;;;;;;6.07;2.60;;;30.40;49.20;;;;;;10868192;32;20050;-71
2022/08/09 20:22:14;;;;;;;4.78;1.27;;;30.30;49.30;;;;;;10863732;32;20027;-72
2022/08/09 20:28:16;;;;;;;4.53;1.90;;;30.30;49.70;;;;;;10873023;27;20447;-72
2022/08/09 20:34:18;;;;;;;3.33;1.73;;;30.30;49.70;;;;;;10853778;32;20062;-71
2022/08/09 20:40:21;;;;;;;3.58;1.10;;;30.20;50.00;;;;;;10867404;32;20028;-71
2022/08/09 20:46:24;;;;;;;2.00;1.15;;;30.20;50.20;;;;;;10867135;32;20036;-71
2022/08/09 20:52:32;;;;;;;2.37;1.45;;;30.00;50.50;;;;;;10867135;32;20062;-71
2022/08/09 20:58:34;;;;;;;;;;;30.00;50.80;;;;;;10863211;32;20054;-71
2022/08/09 21:11:41;;;;;;;2.10;0.98;;;30.00;51.00;;;;;;10904174;32;20015;-71
2022/08/09 21:17:45;;;;;;;2.33;1.25;;;29.90;51.20;;;;;;10904051;32;20050;-71
2022/08/09 21:23:47;;;;;;;2.10;1.17;;;29.90;51.50;;;;;;10903830;32;20031;-71
2022/08/09 21:29:49;;;;;;;1.40;0.98;;;29.80;51.80;;;;;;10903743;32;20046;-71
2022/08/09 21:35:51;;;;;;;2.25;1.55;;;29.80;52.00;;;;;;10903652;32;20058;-70
2022/08/09 21:41:54;;;;;;;3.80;1.85;;;29.70;52.30;;;;;;10890324;32;20028;-71
2022/08/09 21:47:57;;;;;;;3.05;1.70;;;29.70;52.30;;;;;;10908305;32;20019;-71
2022/08/09 21:53:59;;;;;;;1.92;1.30;;;29.60;52.60;;;;;;10910576;32;20054;-71
2022/08/09 22:00:06;;;;;;;3.62;2.00;;;29.60;52.30;;;;;;10910390;32;20054;-71
2022/08/09 22:06:14;;;;;;;2.60;1.37;;;29.50;52.60;;;;;;10910114;32;20019;-71
2022/08/09 22:12:17;;;;;;;1.50;1.12;;;29.40;52.50;;;;;;10909935;32;20085;-70
2022/08/09 22:18:20;;;;;;;3.58;1.83;;;29.40;52.50;;;;;;10906350;32;20327;-71
2022/08/09 22:24:22;;;;;;;2.65;1.30;;;29.30;52.50;;;;;;10909456;32;20023;-71
2022/08/09 22:30:38;;;;;;;2.12;0.93;;;29.30;53.10;;;;;;10909165;32;20398;-71
2022/08/09 22:36:41;;;;;;;1.25;0.73;;;29.30;53.10;;;;;;10908930;32;20016;-71
2022/08/09 22:42:43;;;;;;;2.72;1.30;;;29.30;53.00;;;;;;10908731;32;20332;-71
2022/08/09 22:48:45;;;;;;;3.53;1.48;;;29.20;53.10;;;;;;10908558;32;20046;-70
2022/08/09 22:54:47;;;;;;;1.12;0.88;;;29.20;53.20;;;;;;10895101;32;20038;-71
2022/08/09 23:00:50;;;;;;;1.77;1.08;;;29.10;53.40;;;;;;10907507;32;20042;-70
2022/08/09 23:13:13;;;;;;;5.35;1.42;;;28.90;53.60;;;;;;10907678;32;20023;-71
2022/08/09 23:19:15;;;;;;;2.67;1.42;;;28.90;53.70;;;;;;10907386;32;20011;-70
2022/08/09 23:25:42;;;;;;;2.15;1.15;;;28.80;53.80;;;;;;10907197;32;20027;-70
2022/08/09 23:31:44;;;;;;;2.53;1.60;;;28.80;54.40;;;;;;10907271;32;20315;-71
2022/08/09 23:37:46;;;;;;;4.87;1.12;;;28.80;54.50;;;;;;10906934;32;20015;-71
2022/08/09 23:43:48;;;;;;;1.30;0.77;;;28.70;54.50;;;;;;10906597;32;20050;-71
2022/08/09 23:49:59;;;;;;;2.47;1.30;;;28.60;54.90;;;;;;10904053;32;20023;-70
2022/08/09 23:56:02;;;;;;;1.75;1.17;;;28.60;54.90;;;;;;10906218;32;20057;-70
